Time;durP1;ratioP1;P1;durP2;ratioP2;P2;SDS_P1;SDS_P2;PMS_P1;PMS_P2;Temp;Humidity;BMP_temperature;BMP_pressure;BME280_temperature;BME280_humidity;BME280_pressure;Samples;Min_cycle;Max_cycle;Signal;HPM_P1;HPM_P2
2023/03/24 00:00:35;;;;;;;2.90;2.70;;;14.70;99.90;;;;;;6125651;23;20494;-70
2023/03/24 00:03:02;;;;;;;3.10;2.80;;;14.60;99.90;;;;;;6116860;23;20457;-70
2023/03/24 00:05:29;;;;;;;3.23;2.63;;;14.50;99.90;;;;;;6123212;23;20444;-70
2023/03/24 00:08:01;;;;;;;3.40;2.50;;;14.50;99.90;;;;;;6115856;23;20449;-71
2023/03/24 00:10:29;;;;;;;3.00;2.70;;;14.50;99.90;;;;;;6119945;23;21055;-70
2023/03/24 00:12:57;;;;;;;3.50;2.63;;;14.40;99.90;;;;;;6121324;23;20468;-70
2023/03/24 00:15:25;;;;;;;2.97;2.67;;;14.40;99.90;;;;;;6128203;23;20471;-70
2023/03/24 00:17:54;;;;;;;2.57;2.37;;;14.40;99.90;;;;;;6117458;23;20437;-70
2023/03/24 00:20:24;;;;;;;2.50;2.30;;;14.70;99.90;;;;;;6107000;23;20471;-70
2023/03/24 00:22:57;;;;;;;3.93;2.40;;;14.40;99.90;;;;;;6128977;23;20475;-70
2023/03/24 00:25:32;;;;;;;2.40;2.20;;;14.40;99.90;;;;;;6123846;23;20445;-70
2023/03/24 00:28:00;;;;;;;2.40;2.20;;;14.40;99.90;;;;;;6109557;23;20540;-70
2023/03/24 00:30:27;;;;;;;2.60;2.40;;;14.40;99.90;;;;;;6121477;23;20444;-70
2023/03/24 00:32:57;;;;;;;2.40;2.20;;;14.50;99.90;;;;;;6121984;23;20455;-70
2023/03/24 00:35:25;;;;;;;2.90;2.70;;;14.50;99.90;;;;;;6122254;23;20469;-70
2023/03/24 00:37:52;;;;;;;2.40;2.20;;;14.50;99.90;;;;;;6123028;23;20432;-70
2023/03/24 00:40:21;;;;;;;2.67;2.47;;;14.50;99.90;;;;;;6116748;23;20781;-70
2023/03/24 00:42:50;;;;;;;3.33;2.47;;;14.50;99.90;;;;;;6121338;23;20862;-70
2023/03/24 00:45:22;;;;;;;2.67;2.47;;;14.50;99.90;;;;;;6130404;23;20444;-70
2023/03/24 00:47:52;;;;;;;2.73;2.53;;;14.50;99.90;;;;;;6125212;23;20442;-71
2023/03/24 00:50:25;;;;;;;2.77;2.57;;;14.50;99.90;;;;;;6118366;23;20457;-70
2023/03/24 00:52:53;;;;;;;2.77;2.50;;;14.60;99.90;;;;;;6116508;23;20506;-70
2023/03/24 00:55:21;;;;;;;2.70;2.50;;;14.60;99.90;;;;;;6113418;23;20551;-70
2023/03/24 00:57:50;;;;;;;2.80;2.50;;;14.50;99.90;;;;;;6122553;23;20444;-70
2023/03/24 01:00:21;;;;;;;3.53;3.10;;;14.50;99.90;;;;;;6108405;23;20456;-70
2023/03/24 01:02:52;;;;;;;2.80;2.60;;;14.50;99.90;;;;;;6119892;23;20541;-71
2023/03/24 01:05:20;;;;;;;2.70;2.50;;;14.50;99.90;;;;;;6120043;23;20441;-70
2023/03/24 01:07:50;;;;;;;2.57;2.37;;;14.40;99.90;;;;;;6127405;23;20444;-70
2023/03/24 01:10:20;;;;;;;2.80;2.60;;;14.30;99.90;;;;;;6117934;23;20451;-70
2023/03/24 01:12:47;;;;;;;3.20;2.67;;;14.30;99.90;;;;;;6119106;23;20487;-70
2023/03/24 01:15:18;;;;;;;2.37;2.17;;;14.40;99.90;;;;;;6137139;23;20498;-70
2023/03/24 01:17:47;;;;;;;2.13;1.90;;;14.40;99.90;;;;;;6131581;23;20456;-70
2023/03/24 01:20:16;;;;;;;2.50;2.30;;;14.50;99.90;;;;;;6121413;23;20862;-70
2023/03/24 01:22:45;;;;;;;2.33;2.13;;;14.50;99.90;;;;;;6120157;23;20465;-70
2023/03/24 01:25:15;;;;;;;3.50;2.20;;;14.60;99.90;;;;;;6136772;23;20481;-70
2023/03/24 01:27:42;;;;;;;2.37;2.17;;;14.60;99.90;;;;;;6126064;23;20457;-70
2023/03/24 01:30:12;;;;;;;2.83;2.50;;;14.70;99.90;;;;;;6119810;23;20429;-68
2023/03/24 01:32:42;;;;;;;2.50;2.30;;;14.70;99.90;;;;;;6116182;23;20741;-70
2023/03/24 01:35:10;;;;;;;2.33;2.13;;;14.80;99.90;;;;;;6126172;23;20527;-70
2023/03/24 01:37:38;;;;;;;3.57;2.20;;;14.80;99.90;;;;;;6122183;23;20465;-70
2023/03/24 01:40:08;;;;;;;2.37;2.20;;;14.80;99.90;;;;;;6125410;23;21031;-70
2023/03/24 01:42:37;;;;;;;2.60;2.40;;;14.80;99.90;;;;;;6116251;23;20458;-70
2023/03/24 01:45:49;;;;;;;3.70;2.20;;;14.80;99.90;;;;;;6128707;23;20538;-70
2023/03/24 01:48:24;;;;;;;2.60;2.33;;;14.70;99.90;;;;;;6052228;23;20527;-71
2023/03/24 01:50:55;;;;;;;2.53;2.13;;;14.70;99.90;;;;;;6100496;23;20466;-70
2023/03/24 01:53:23;;;;;;;2.70;2.50;;;14.60;99.90;;;;;;6117649;23;20444;-70
2023/03/24 01:55:51;;;;;;;2.47;2.27;;;14.80;99.90;;;;;;6116378;23;20470;-70
2023/03/24 01:58:19;;;;;;;2.20;2.07;;;14.50;99.90;;;;;;6128288;23;20967;-70
2023/03/24 02:00:46;;;;;;;2.70;2.50;;;14.50;99.90;;;;;;6118733;23;20469;-70
2023/03/24 02:03:19;;;;;;;2.70;2.50;;;14.40;99.90;;;;;;6115499;23;20449;-70
2023/03/24 02:05:50;;;;;;;4.43;2.20;;;14.40;99.90;;;;;;6118917;23;20441;-70
2023/03/24 02:08:21;;;;;;;2.50;2.30;;;14.40;99.90;;;;;;6121679;23;20443;-70
2023/03/24 02:10:51;;;;;;;2.20;2.10;;;14.40;99.90;;;;;;6115895;23;20469;-70
2023/03/24 02:13:18;;;;;;;2.63;2.43;;;14.50;99.90;;;;;;6113925;23;20510;-70
2023/03/24 02:16:07;;;;;;;2.53;2.20;;;14.50;99.90;;;;;;6125127;23;20476;-70
2023/03/24 02:18:46;;;;;;;2.30;2.10;;;14.50;99.90;;;;;;6129003;23;20495;-70
2023/03/24 02:21:47;;;;;;;2.13;2.03;;;14.50;99.90;;;;;;6111625;23;20471;-70
2023/03/24 02:24:42;;;;;;;2.83;2.20;;;14.50;99.90;;;;;;6112232;23;20508;-70
2023/03/24 02:27:22;;;;;;;2.37;2.17;;;14.60;99.90;;;;;;6094938;23;20518;-70
2023/03/24 02:30:22;;;;;;;2.33;2.13;;;14.60;99.90;;;;;;6118425;23;20527;-70
2023/03/24 02:33:10;;;;;;;2.67;2.30;;;14.60;99.90;;;;;;6112022;23;20949;-71
2023/03/24 02:36:02;;;;;;;2.43;2.23;;;14.60;99.90;;;;;;6123255;23;20575;-70
2023/03/24 02:39:26;;;;;;;2.83;2.40;;;14.50;99.90;;;;;;6107813;23;20476;-70
2023/03/24 02:42:01;;;;;;;2.80;2.20;;;14.40;99.90;;;;;;6056873;23;21010;-70
2023/03/24 02:44:34;;;;;;;2.50;2.30;;;14.50;99.90;;;;;;6060836;23;20540;-70
2023/03/24 02:47:07;;;;;;;2.40;2.20;;;14.40;99.90;;;;;;6098331;23;21041;-70
2023/03/24 02:49:42;;;;;;;2.73;1.90;;;14.50;99.90;;;;;;6117616;23;20950;-70
2023/03/24 02:52:18;;;;;;;1.80;1.70;;;14.50;99.90;;;;;;6120626;23;20560;-71
2023/03/24 02:54:51;;;;;;;2.77;2.07;;;14.50;99.90;;;;;;6103284;23;20437;-70
2023/03/24 02:57:23;;;;;;;1.90;1.80;;;14.70;99.90;;;;;;6125917;23;20656;-70
2023/03/24 02:59:56;;;;;;;1.90;1.80;;;14.80;99.90;;;;;;6121603;23;20741;-70
2023/03/24 03:02:29;;;;;;;1.97;1.87;;;14.80;99.90;;;;;;6129513;23;20874;-70
2023/03/24 03:05:02;;;;;;;2.13;1.67;;;14.90;99.90;;;;;;6133641;23;20440;-70
2023/03/24 03:07:36;;;;;;;3.37;2.00;;;15.00;99.90;;;;;;6125520;23;20453;-70
2023/03/24 03:10:12;;;;;;;2.33;1.80;;;15.00;99.90;;;;;;6117831;23;20449;-70
2023/03/24 03:12:41;;;;;;;2.30;2.10;;;15.10;99.90;;;;;;6123614;23;20447;-70
2023/03/24 03:15:13;;;;;;;2.00;1.80;;;15.20;99.90;;;;;;6125245;23;20443;-71
2023/03/24 03:17:47;;;;;;;3.80;2.07;;;15.30;99.90;;;;;;6106697;23;20451;-70
2023/03/24 03:20:19;;;;;;;2.10;1.90;;;15.40;99.90;;;;;;6120310;23;20437;-70
2023/03/24 03:22:50;;;;;;;2.10;2.00;;;15.50;99.90;;;;;;6117890;23;20437;-70
2023/03/24 03:25:23;;;;;;;1.93;1.73;;;15.60;99.90;;;;;;6116743;23;20813;-70
2023/03/24 03:27:53;;;;;;;1.80;1.70;;;15.70;99.90;;;;;;6107134;23;20450;-70
2023/03/24 03:30:26;;;;;;;2.00;1.80;;;15.70;99.90;;;;;;6120689;23;20460;-70
2023/03/24 03:32:56;;;;;;;1.87;1.77;;;15.70;99.90;;;;;;6112493;23;20584;-70
2023/03/24 03:35:29;;;;;;;2.07;1.93;;;15.70;99.90;;;;;;6121730;23;20548;-70
2023/03/24 03:38:03;;;;;;;2.43;1.90;;;15.70;99.90;;;;;;6135930;23;20447;-70
2023/03/24 03:40:38;;;;;;;1.83;1.73;;;15.70;99.90;;;;;;6123474;23;21015;-70
2023/03/24 03:43:06;;;;;;;3.40;1.90;;;15.70;99.90;;;;;;6122450;23;20468;-70
2023/03/24 03:45:34;;;;;;;2.57;2.20;;;15.60;99.90;;;;;;6122248;23;20453;-71
2023/03/24 03:48:01;;;;;;;2.13;2.00;;;15.50;99.90;;;;;;6132178;23;20846;-70
2023/03/24 03:50:29;;;;;;;2.17;1.80;;;15.40;99.90;;;;;;6133756;23;20468;-70
2023/03/24 03:52:56;;;;;;;2.33;2.13;;;15.30;99.90;;;;;;6115501;23;21008;-71
2023/03/24 03:55:24;;;;;;;3.50;1.63;;;15.20;99.90;;;;;;6124065;23;20433;-70
2023/03/24 03:57:54;;;;;;;2.20;1.90;;;15.10;99.90;;;;;;6122043;23;20479;-70
2023/03/24 04:00:21;;;;;;;1.90;1.70;;;15.20;99.90;;;;;;6120366;23;20484;-70
2023/03/24 04:03:11;;;;;;;1.73;1.60;;;15.20;99.90;;;;;;6113056;23;20859;-71
2023/03/24 04:05:46;;;;;;;2.43;2.23;;;15.30;99.90;;;;;;6121385;23;20503;-70
2023/03/24 04:08:25;;;;;;;2.17;1.90;;;15.30;99.90;;;;;;6119768;23;20849;-71
2023/03/24 04:11:22;;;;;;;2.00;1.87;;;15.30;99.90;;;;;;6116010;23;20515;-70
2023/03/24 04:14:01;;;;;;;2.60;2.10;;;15.30;99.90;;;;;;6121451;23;20437;-70
2023/03/24 04:16:40;;;;;;;2.27;1.93;;;15.30;99.90;;;;;;6120734;23;20565;-70
2023/03/24 04:19:17;;;;;;;1.83;1.73;;;15.30;99.90;;;;;;6129643;23;20445;-70
2023/03/24 04:22:04;;;;;;;2.20;2.00;;;15.40;99.90;;;;;;6114266;23;21043;-70
2023/03/24 04:24:41;;;;;;;2.00;1.80;;;15.40;99.90;;;;;;6115457;23;20429;-70
2023/03/24 04:27:13;;;;;;;1.63;1.53;;;15.50;99.90;;;;;;6116394;23;20475;-70
2023/03/24 04:29:54;;;;;;;2.00;1.90;;;15.50;99.90;;;;;;6119388;23;20517;-70
2023/03/24 04:32:27;;;;;;;2.20;2.00;;;15.50;99.90;;;;;;6114970;23;20445;-70
2023/03/24 04:35:00;;;;;;;2.10;1.83;;;15.50;99.90;;;;;;6131506;23;20441;-71
2023/03/24 04:37:31;;;;;;;1.80;1.70;;;15.50;99.90;;;;;;6124756;23;20534;-70
2023/03/24 04:40:01;;;;;;;2.57;2.03;;;15.50;99.90;;;;;;6141074;23;20438;-70
2023/03/24 04:42:35;;;;;;;2.00;1.90;;;15.50;99.90;;;;;;6114035;23;20437;-70
2023/03/24 04:45:05;;;;;;;2.47;2.00;;;15.50;99.90;;;;;;6115835;23;20447;-71
2023/03/24 04:47:37;;;;;;;3.30;1.80;;;15.60;99.90;;;;;;6121098;23;20446;-71
2023/03/24 04:50:10;;;;;;;2.30;2.10;;;15.70;99.90;;;;;;6147696;23;20439;-70
2023/03/24 04:52:37;;;;;;;1.90;1.70;;;15.60;99.90;;;;;;6119940;23;20524;-70
2023/03/24 04:55:26;;;;;;;2.10;1.90;;;15.60;99.90;;;;;;6119369;23;20440;-70
2023/03/24 04:57:54;;;;;;;3.60;1.90;;;15.70;99.90;;;;;;6121251;23;20844;-70
2023/03/24 05:00:23;;;;;;;1.97;1.70;;;15.70;99.90;;;;;;6119657;23;20526;-70
2023/03/24 05:02:51;;;;;;;2.03;1.87;;;15.70;99.90;;;;;;6121125;23;20785;-71
2023/03/24 05:05:18;;;;;;;2.73;1.83;;;15.80;99.90;;;;;;6142794;23;21264;-70
2023/03/24 05:07:45;;;;;;;2.40;2.00;;;15.80;99.90;;;;;;6124721;23;20928;-70
2023/03/24 05:10:12;;;;;;;2.03;1.80;;;15.80;99.90;;;;;;6119630;23;20535;-70
2023/03/24 05:12:40;;;;;;;2.07;1.87;;;15.70;99.90;;;;;;6115103;23;20446;-70
2023/03/24 05:15:08;;;;;;;1.70;1.60;;;15.80;99.90;;;;;;6119221;23;20437;-71
2023/03/24 05:17:36;;;;;;;2.10;1.90;;;15.80;99.90;;;;;;6119761;23;20469;-70
2023/03/24 05:20:09;;;;;;;2.33;2.13;;;15.70;99.90;;;;;;6119560;23;20507;-70
2023/03/24 05:22:37;;;;;;;2.63;2.03;;;15.60;99.90;;;;;;6139125;23;20474;-70
2023/03/24 05:25:06;;;;;;;2.07;1.90;;;15.50;99.90;;;;;;6127047;23;20446;-70
2023/03/24 05:27:33;;;;;;;2.97;2.77;;;15.40;99.90;;;;;;6103820;23;20449;-71
2023/03/24 05:30:00;;;;;;;3.07;2.53;;;15.30;99.90;;;;;;6122366;23;20440;-71
2023/03/24 05:32:28;;;;;;;3.40;3.10;;;15.10;99.90;;;;;;6121092;23;20440;-71
2023/03/24 05:34:56;;;;;;;2.73;2.53;;;14.90;99.90;;;;;;6136646;23;20424;-71
2023/03/24 05:37:24;;;;;;;2.37;2.13;;;14.80;99.90;;;;;;6118584;23;20915;-71
2023/03/24 05:39:51;;;;;;;3.47;2.57;;;14.70;99.90;;;;;;6133212;23;20518;-71
2023/03/24 05:42:19;;;;;;;2.60;2.40;;;14.60;99.90;;;;;;6120401;23;20487;-71
2023/03/24 05:44:47;;;;;;;2.57;2.23;;;14.60;99.90;;;;;;6120440;23;20498;-70
2023/03/24 05:47:15;;;;;;;2.73;2.40;;;14.40;99.90;;;;;;6118383;23;20452;-72
2023/03/24 05:49:42;;;;;;;3.17;2.67;;;14.40;99.90;;;;;;6130326;23;20445;-72
2023/03/24 05:52:12;;;;;;;2.73;2.53;;;14.30;99.90;;;;;;6131059;23;20443;-73
2023/03/24 05:54:39;;;;;;;3.00;2.70;;;14.30;99.90;;;;;;6105956;23;21488;-71
2023/03/24 05:57:06;;;;;;;3.47;3.10;;;14.30;99.90;;;;;;6112559;23;20488;-69
2023/03/24 05:59:33;;;;;;;2.67;2.47;;;14.20;99.90;;;;;;6116840;23;20441;-69
2023/03/24 06:02:20;;;;;;;3.87;2.83;;;14.20;99.90;;;;;;6112099;23;20963;-79
2023/03/24 06:04:48;;;;;;;3.60;2.67;;;14.30;99.90;;;;;;6113331;23;20433;-76
2023/03/24 06:07:16;;;;;;;3.00;2.67;;;14.20;99.90;;;;;;6114767;23;20437;-79
2023/03/24 06:09:45;;;;;;;2.90;2.70;;;14.10;99.90;;;;;;6127177;23;20514;-79
2023/03/24 06:12:14;;;;;;;3.20;2.90;;;14.10;99.90;;;;;;6120712;23;20469;-79
2023/03/24 06:14:41;;;;;;;3.10;2.90;;;14.10;99.90;;;;;;6099844;23;20513;-71
2023/03/24 06:17:13;;;;;;;3.60;3.30;;;13.90;99.90;;;;;;6112988;23;20516;-72
2023/03/24 06:19:48;;;;;;;3.23;3.03;;;13.80;99.90;;;;;;6117215;23;20497;-71
2023/03/24 06:22:18;;;;;;;3.43;3.13;;;13.70;99.90;;;;;;6116364;23;20430;-71
2023/03/24 06:24:46;;;;;;;3.83;3.40;;;13.60;99.90;;;;;;6113293;23;20478;-71
2023/03/24 06:27:14;;;;;;;3.43;3.23;;;13.50;99.90;;;;;;6127635;23;20434;-71
2023/03/24 06:29:42;;;;;;;3.73;3.30;;;13.40;99.90;;;;;;6124635;23;20432;-71
2023/03/24 06:32:09;;;;;;;2.70;2.50;;;13.30;99.90;;;;;;6140284;23;20443;-71
2023/03/24 06:34:37;;;;;;;3.90;3.30;;;13.20;99.90;;;;;;6106907;23;20434;-71
2023/03/24 06:37:04;;;;;;;3.97;3.30;;;13.20;99.90;;;;;;6101453;23;20468;-72
2023/03/24 06:39:34;;;;;;;3.83;3.20;;;13.10;99.90;;;;;;6120247;23;20438;-72
2023/03/24 06:42:00;;;;;;;5.07;3.90;;;13.10;99.90;;;;;;6111083;23;20442;-84
2023/03/24 06:44:28;;;;;;;4.27;3.90;;;13.00;99.90;;;;;;6112437;23;20439;-72
2023/03/24 06:46:55;;;;;;;3.50;3.30;;;13.00;99.90;;;;;;6101414;23;20442;-72
2023/03/24 06:49:22;;;;;;;5.27;3.30;;;13.10;99.90;;;;;;6104313;23;20510;-72
2023/03/24 06:51:49;;;;;;;2.97;2.70;;;13.10;99.90;;;;;;6110507;23;20848;-72
2023/03/24 06:54:16;;;;;;;4.50;3.83;;;13.10;99.90;;;;;;6105502;23;20520;-72
2023/03/24 06:56:45;;;;;;;4.20;3.17;;;13.10;99.90;;;;;;6113864;23;20464;-72
2023/03/24 06:59:12;;;;;;;3.23;2.93;;;13.10;99.90;;;;;;6115374;23;20433;-71
2023/03/24 07:01:39;;;;;;;3.93;3.23;;;13.00;99.90;;;;;;6115586;23;20819;-72
2023/03/24 07:04:06;;;;;;;3.23;3.03;;;13.10;99.90;;;;;;6095266;23;20440;-72
2023/03/24 07:06:34;;;;;;;5.83;3.23;;;13.10;99.90;;;;;;6106438;23;20441;-72
2023/03/24 07:09:01;;;;;;;3.50;2.47;;;13.20;99.90;;;;;;6099241;23;20828;-72
2023/03/24 07:11:28;;;;;;;3.20;2.90;;;13.20;99.90;;;;;;6104348;23;20526;-72
2023/03/24 07:13:56;;;;;;;3.23;3.00;;;13.30;99.90;;;;;;6119521;23;20439;-72
2023/03/24 07:16:24;;;;;;;3.33;3.10;;;13.30;99.90;;;;;;6113482;23;20469;-73
2023/03/24 07:18:51;;;;;;;3.03;2.70;;;13.30;99.90;;;;;;6111947;23;20669;-72
2023/03/24 07:21:18;;;;;;;3.73;2.67;;;13.30;99.90;;;;;;6111188;23;20519;-71
2023/03/24 07:23:45;;;;;;;3.40;3.10;;;13.30;99.90;;;;;;6107454;23;20441;-72
2023/03/24 07:26:12;;;;;;;3.40;3.10;;;13.20;99.90;;;;;;6106905;23;20782;-72
2023/03/24 07:28:39;;;;;;;5.37;3.03;;;13.20;99.90;;;;;;6102475;23;20488;-71
2023/03/24 07:31:09;;;;;;;3.77;3.07;;;13.20;99.90;;;;;;6104622;23;20466;-71
2023/03/24 07:33:37;;;;;;;3.10;2.87;;;13.10;99.90;;;;;;6094893;23;20443;-72
2023/03/24 07:36:04;;;;;;;3.53;3.23;;;13.10;99.90;;;;;;6121968;23;20430;-71
2023/03/24 07:38:31;;;;;;;3.43;3.13;;;13.00;99.90;;;;;;6116652;23;20531;-71
2023/03/24 07:40:58;;;;;;;3.23;3.00;;;13.00;99.90;;;;;;6117672;23;20458;-71
2023/03/24 07:43:26;;;;;;;6.57;3.03;;;12.90;99.90;;;;;;6114891;23;20445;-71
2023/03/24 07:45:53;;;;;;;3.70;2.77;;;12.90;99.90;;;;;;6121831;23;20523;-71
2023/03/24 07:48:21;;;;;;;3.73;2.70;;;12.80;99.90;;;;;;6129476;23;20464;-72
2023/03/24 07:50:48;;;;;;;3.40;3.10;;;12.80;99.90;;;;;;6115160;23;20535;-71
2023/03/24 07:53:18;;;;;;;3.17;2.87;;;12.80;99.90;;;;;;6106146;23;21527;-71
2023/03/24 07:55:45;;;;;;;3.13;2.93;;;12.70;99.90;;;;;;6111005;23;20902;-71
2023/03/24 07:58:12;;;;;;;3.60;3.30;;;12.70;99.90;;;;;;6113867;23;20545;-71
2023/03/24 08:00:40;;;;;;;4.57;3.30;;;12.80;99.90;;;;;;6110968;23;20759;-71
2023/03/24 08:03:12;;;;;;;3.23;3.03;;;12.60;99.90;;;;;;6118734;23;20430;-71
2023/03/24 08:05:42;;;;;;;3.80;3.50;;;12.60;99.90;;;;;;6139339;23;20437;-71
2023/03/24 08:08:09;;;;;;;3.43;2.90;;;12.60;99.90;;;;;;6121388;23;20465;-71
2023/03/24 08:10:36;;;;;;;3.30;3.00;;;12.60;99.90;;;;;;6132517;23;20493;-71
2023/03/24 08:13:03;;;;;;;3.33;2.97;;;12.60;99.90;;;;;;6113950;23;21397;-70
2023/03/24 08:15:31;;;;;;;3.43;3.10;;;12.60;99.90;;;;;;6113944;23;20188;-70
2023/03/24 08:17:58;;;;;;;3.33;3.03;;;12.60;99.90;;;;;;6133550;23;20481;-70
2023/03/24 08:20:28;;;;;;;4.20;2.97;;;12.60;99.90;;;;;;6116060;23;20461;-70
2023/03/24 08:22:56;;;;;;;4.13;3.17;;;12.60;99.90;;;;;;6118832;23;20440;-70
2023/03/24 08:25:25;;;;;;;3.90;3.00;;;12.60;99.90;;;;;;6128226;23;20518;-70
2023/03/24 08:27:53;;;;;;;3.33;3.03;;;12.60;99.90;;;;;;6108206;23;20430;-71
2023/03/24 08:30:22;;;;;;;4.17;3.33;;;12.60;99.90;;;;;;6119866;23;20536;-70
2023/03/24 08:32:51;;;;;;;3.80;3.50;;;12.60;99.90;;;;;;6120071;23;20437;-70
2023/03/24 08:35:21;;;;;;;3.78;3.35;;;12.60;99.90;;;;;;6118002;23;20534;-70
2023/03/24 08:37:48;;;;;;;3.80;3.40;;;12.50;99.90;;;;;;6102698;23;20208;-70
2023/03/24 08:40:19;;;;;;;4.07;3.73;;;12.50;99.90;;;;;;6122324;23;20457;-70
2023/03/24 08:42:49;;;;;;;4.30;3.90;;;12.60;99.90;;;;;;6113392;23;20443;-71
2023/03/24 08:45:19;;;;;;;3.87;3.47;;;12.60;99.90;;;;;;6111108;23;20437;-70
2023/03/24 08:47:47;;;;;;;4.00;3.30;;;12.60;99.90;;;;;;6113533;23;20467;-70
2023/03/24 08:50:15;;;;;;;5.70;3.73;;;12.60;99.90;;;;;;6117162;23;20487;-70
2023/03/24 08:52:41;;;;;;;3.83;3.40;;;12.70;99.90;;;;;;6125741;23;20449;-71
2023/03/24 08:55:10;;;;;;;3.57;3.27;;;12.70;99.90;;;;;;6127699;23;20489;-70
2023/03/24 08:57:38;;;;;;;4.97;3.20;;;12.80;99.90;;;;;;6107241;23;20460;-71
2023/03/24 09:00:12;;;;;;;3.37;3.00;;;12.90;99.90;;;;;;6116645;23;20452;-71
2023/03/24 09:02:39;;;;;;;3.77;3.27;;;13.00;99.90;;;;;;6113572;23;20435;-71
2023/03/24 09:05:06;;;;;;;3.57;3.27;;;13.10;99.90;;;;;;6105452;23;20436;-71
2023/03/24 09:07:33;;;;;;;3.20;2.90;;;13.10;99.90;;;;;;6104629;23;20457;-71
2023/03/24 09:10:01;;;;;;;2.70;2.50;;;13.20;99.90;;;;;;6094080;23;20757;-71
2023/03/24 09:12:28;;;;;;;3.07;2.80;;;13.30;99.90;;;;;;6108503;23;20438;-71
2023/03/24 09:14:56;;;;;;;3.23;2.93;;;13.40;99.90;;;;;;6116758;23;20464;-71
2023/03/24 09:17:23;;;;;;;2.70;2.50;;;13.50;99.90;;;;;;6124585;23;20489;-71
2023/03/24 09:19:50;;;;;;;2.00;1.90;;;13.60;99.90;;;;;;6116450;23;20452;-71
2023/03/24 09:22:17;;;;;;;2.73;2.50;;;13.60;99.90;;;;;;6128394;23;20448;-71
2023/03/24 09:24:47;;;;;;;2.63;2.43;;;13.70;99.90;;;;;;6122614;23;20811;-71
2023/03/24 09:27:15;;;;;;;2.40;2.20;;;13.70;99.90;;;;;;6112321;23;20445;-71
2023/03/24 09:29:42;;;;;;;2.20;2.00;;;13.70;99.90;;;;;;6114321;23;20973;-70
2023/03/24 09:32:10;;;;;;;2.37;2.17;;;13.70;99.90;;;;;;6116416;23;20445;-71
2023/03/24 09:34:37;;;;;;;2.47;2.27;;;13.70;99.90;;;;;;6106648;23;20456;-71
2023/03/24 09:37:04;;;;;;;2.43;2.23;;;13.70;99.90;;;;;;6125607;23;20444;-71
2023/03/24 09:39:32;;;;;;;1.90;1.80;;;13.70;99.90;;;;;;6122900;23;21002;-71
2023/03/24 09:41:59;;;;;;;2.13;2.00;;;13.80;99.90;;;;;;6107362;23;20979;-71
2023/03/24 09:44:31;;;;;;;2.43;2.23;;;13.80;99.90;;;;;;6112280;23;20440;-70
2023/03/24 09:47:02;;;;;;;1.80;1.70;;;13.90;99.90;;;;;;6098013;23;20771;-71
2023/03/24 09:49:37;;;;;;;2.40;2.23;;;14.00;99.90;;;;;;6102281;23;20457;-71
2023/03/24 09:52:07;;;;;;;2.03;1.93;;;14.10;99.90;;;;;;6104659;23;20517;-71
2023/03/24 09:54:43;;;;;;;2.80;2.07;;;14.10;99.90;;;;;;6123546;23;20494;-71
2023/03/24 09:57:18;;;;;;;2.70;2.10;;;14.20;99.90;;;;;;6116265;23;20478;-71
2023/03/24 09:59:45;;;;;;;1.90;1.80;;;14.50;99.90;;;;;;6110709;23;20452;-71
2023/03/24 10:02:15;;;;;;;2.60;2.00;;;14.40;99.90;;;;;;6133482;23;20461;-71
2023/03/24 10:04:43;;;;;;;1.90;1.80;;;14.50;99.90;;;;;;6115264;23;20500;-71
2023/03/24 10:07:18;;;;;;;2.20;1.80;;;14.70;99.90;;;;;;6117475;23;20441;-71
2023/03/24 10:09:49;;;;;;;2.30;2.10;;;14.80;99.90;;;;;;6107052;23;20453;-71
2023/03/24 10:12:25;;;;;;;1.83;1.73;;;15.00;99.90;;;;;;6110990;23;20422;-72
2023/03/24 10:15:04;;;;;;;2.13;2.03;;;15.20;99.90;;;;;;6111782;23;20455;-71
2023/03/24 10:17:43;;;;;;;2.67;2.00;;;15.30;99.90;;;;;;6104955;23;20946;-70
2023/03/24 10:20:22;;;;;;;1.80;1.70;;;15.50;99.90;;;;;;6128380;23;20880;-71
2023/03/24 10:22:58;;;;;;;1.90;1.80;;;15.50;99.90;;;;;;6105593;23;20424;-71
2023/03/24 10:25:41;;;;;;;1.67;1.57;;;15.50;99.90;;;;;;6128225;23;20469;-71
2023/03/24 10:28:16;;;;;;;1.80;1.70;;;15.50;99.90;;;;;;6105891;23;20437;-71
2023/03/24 10:30:45;;;;;;;1.80;1.70;;;15.50;99.90;;;;;;6115341;23;20665;-70
2023/03/24 10:33:13;;;;;;;1.60;1.50;;;15.60;99.90;;;;;;6134282;23;20433;-71
2023/03/24 10:35:48;;;;;;;1.50;1.40;;;15.50;99.90;;;;;;6127065;23;20429;-71
2023/03/24 10:38:18;;;;;;;2.33;1.60;;;15.40;99.90;;;;;;6117668;23;20457;-71
2023/03/24 10:40:46;;;;;;;2.07;1.50;;;15.50;99.90;;;;;;6105986;23;20496;-71
2023/03/24 10:43:16;;;;;;;2.17;1.97;;;15.50;99.90;;;;;;6121586;23;20922;-69
2023/03/24 10:45:47;;;;;;;1.57;1.47;;;15.50;99.90;;;;;;6121520;23;20433;-70
2023/03/24 10:48:32;;;;;;;1.53;1.43;;;15.50;99.90;;;;;;6112736;23;20440;-70
2023/03/24 10:51:02;;;;;;;2.40;1.43;;;15.50;99.90;;;;;;6106151;23;20464;-70
2023/03/24 10:53:29;;;;;;;1.50;1.40;;;15.50;99.90;;;;;;6135444;23;20725;-70
2023/03/24 10:55:56;;;;;;;1.90;1.43;;;15.50;99.90;;;;;;6110016;23;20965;-70
2023/03/24 10:58:30;;;;;;;2.30;1.77;;;15.60;99.90;;;;;;6124843;23;20457;-70
2023/03/24 11:00:59;;;;;;;1.50;1.40;;;15.60;99.90;;;;;;6115348;23;20987;-69
2023/03/24 11:03:31;;;;;;;1.73;1.50;;;15.60;99.90;;;;;;6112980;23;20448;-70
2023/03/24 11:06:01;;;;;;;1.83;1.30;;;15.70;99.90;;;;;;6117304;23;20524;-69
2023/03/24 11:08:34;;;;;;;1.50;1.40;;;15.70;99.90;;;;;;6101672;23;20943;-69
2023/03/24 11:11:01;;;;;;;1.40;1.30;;;15.70;99.90;;;;;;6110820;23;20457;-70
2023/03/24 11:13:31;;;;;;;1.37;1.27;;;15.80;99.90;;;;;;6105074;23;20444;-70
2023/03/24 11:16:09;;;;;;;2.03;1.30;;;16.00;99.90;;;;;;6105944;23;21218;-69
2023/03/24 11:18:37;;;;;;;1.57;1.43;;;16.10;99.90;;;;;;6093332;23;20552;-69
2023/03/24 11:21:07;;;;;;;1.47;1.10;;;16.10;99.90;;;;;;6096631;23;20457;-69
2023/03/24 11:23:38;;;;;;;1.43;1.33;;;16.10;99.90;;;;;;6096586;23;20894;-70
2023/03/24 11:26:09;;;;;;;1.40;1.30;;;16.10;99.90;;;;;;6094375;23;20469;-70
2023/03/24 11:28:40;;;;;;;1.30;1.20;;;16.10;99.90;;;;;;6098069;23;20436;-69
2023/03/24 11:31:09;;;;;;;1.40;1.30;;;16.10;99.90;;;;;;6110946;23;20481;-69
2023/03/24 11:33:45;;;;;;;1.97;1.03;;;16.30;99.90;;;;;;6129787;23;20433;-69
2023/03/24 11:36:41;;;;;;;1.37;1.27;;;16.30;99.90;;;;;;6110511;23;20605;-69
2023/03/24 11:39:16;;;;;;;1.13;1.03;;;16.30;99.90;;;;;;6107772;23;20473;-70
2023/03/24 11:41:50;;;;;;;1.67;1.50;;;16.50;99.90;;;;;;6106687;23;21015;-69
2023/03/24 11:44:20;;;;;;;1.30;1.20;;;16.60;99.90;;;;;;6107130;23;20655;-70
2023/03/24 11:46:52;;;;;;;1.33;1.23;;;16.50;99.90;;;;;;6114611;23;20536;-69
2023/03/24 11:49:22;;;;;;;2.13;1.40;;;16.30;99.90;;;;;;6114937;23;20984;-69
2023/03/24 11:51:54;;;;;;;1.40;1.30;;;16.10;99.90;;;;;;6115770;23;21089;-69
2023/03/24 11:54:27;;;;;;;1.33;1.23;;;15.90;99.90;;;;;;6118174;23;20479;-69
2023/03/24 11:56:57;;;;;;;1.43;1.33;;;15.80;99.90;;;;;;6118042;23;20863;-70
2023/03/24 11:59:31;;;;;;;1.40;1.30;;;15.70;99.90;;;;;;6113640;23;20553;-69
2023/03/24 12:02:10;;;;;;;1.30;1.20;;;15.40;99.90;;;;;;6116604;23;20516;-69
2023/03/24 12:04:48;;;;;;;1.50;1.40;;;15.20;99.90;;;;;;6118038;23;20441;-70
2023/03/24 12:07:52;;;;;;;1.50;1.40;;;15.00;99.90;;;;;;6112942;23;20433;-70
2023/03/24 12:10:26;;;;;;;2.27;1.70;;;14.80;99.90;;;;;;6054256;23;20457;-69
2023/03/24 12:13:05;;;;;;;1.77;1.43;;;14.60;99.90;;;;;;6109817;23;20444;-69
2023/03/24 12:15:40;;;;;;;2.17;1.70;;;14.40;99.90;;;;;;6116811;23;20433;-70
2023/03/24 12:18:30;;;;;;;1.50;1.30;;;14.30;99.90;;;;;;6109474;23;20416;-69
2023/03/24 12:21:04;;;;;;;1.90;1.80;;;14.30;99.90;;;;;;6118737;23;20878;-69
2023/03/24 12:23:44;;;;;;;1.30;1.20;;;14.40;99.90;;;;;;6095334;23;20833;-70
2023/03/24 12:26:20;;;;;;;1.63;1.10;;;14.60;99.90;;;;;;6117667;23;20465;-69
2023/03/24 12:29:07;;;;;;;1.30;1.20;;;14.70;99.90;;;;;;6110580;23;20494;-69
2023/03/24 12:31:54;;;;;;;3.43;1.30;;;14.80;99.90;;;;;;6110697;23;20469;-69
2023/03/24 12:34:51;;;;;;;1.00;0.90;;;15.00;99.90;;;;;;6122364;23;20447;-69
2023/03/24 12:37:24;;;;;;;1.10;1.10;;;15.10;99.90;;;;;;6118150;23;20528;-69
2023/03/24 12:40:01;;;;;;;1.20;1.10;;;15.10;99.90;;;;;;6119658;23;20476;-69
2023/03/24 12:42:35;;;;;;;1.10;1.00;;;15.20;99.90;;;;;;6134178;23;20442;-69
2023/03/24 12:45:31;;;;;;;1.13;0.90;;;15.20;99.90;;;;;;6117454;23;20522;-70
2023/03/24 12:48:13;;;;;;;0.87;0.87;;;15.20;99.90;;;;;;6132006;23;20916;-69
2023/03/24 12:50:51;;;;;;;1.10;1.00;;;15.20;99.90;;;;;;6128313;23;20494;-69
2023/03/24 12:53:29;;;;;;;0.90;0.90;;;15.20;99.90;;;;;;6108915;23;20516;-70
2023/03/24 12:56:02;;;;;;;1.03;0.93;;;15.20;99.90;;;;;;6124519;23;20468;-69
2023/03/24 12:58:40;;;;;;;1.00;0.90;;;15.30;99.90;;;;;;6125934;23;20469;-70
2023/03/24 13:01:15;;;;;;;1.37;0.93;;;15.40;99.90;;;;;;6111531;23;20562;-70
2023/03/24 13:03:46;;;;;;;0.80;0.80;;;15.40;99.90;;;;;;6119466;23;20788;-70
2023/03/24 13:06:19;;;;;;;0.60;0.60;;;15.40;99.90;;;;;;6116714;23;20541;-69
2023/03/24 13:09:03;;;;;;;0.80;0.70;;;15.30;99.90;;;;;;6099069;23;20441;-69
2023/03/24 13:11:38;;;;;;;1.30;0.80;;;15.30;99.90;;;;;;6129937;23;20436;-70